Arthur Maersk — OXJH2 — position and weather

sailwx.info

Track history (hours):
 
Tides and Currents Weather Stations Pressure Air Temp Water Temp Dewpoint Dewpoint Depression Visibility Wind Speed Wind Dir Waves Ship Positions

Arthur Maersk

Last reported at 2014-Aug-17 03:33 UTC. Time now 2014-Sep-03 04:39 UTC.
Position N 36°30' E 014°30'.
Warning: this ship's position is 17 days out of date.

Length 352 m; draft 12 m.

Type: Cargo ship. MMSI: 220221000.

Date/timePositionNaut miles runAvg speedWind from/ knotsBaromVisibWave heightAir tempDewpointWater temp
2014-Aug-17 03:33N 36°30' E 014°30'1616.0
2014-Aug-17 02:33N 36°34' E 014°11'1615.8
2014-Aug-17 01:33N 36°39' E 013°52'1615.8
2014-Aug-17 00:33N 36°43' E 013°33'1615.9
2014-Aug-16 23:33N 36°47' E 013°14'1615.6
2014-Aug-16 22:33N 36°53' E 012°56'1515.5
2014-Aug-16 21:33N 36°58' E 012°38'5115.5
2014-Aug-16 18:15N 37°14' E 011°37'1115.8
2014-Aug-16 17:33N 37°18' E 011°24'1615.8
2014-Aug-16 16:33N 37°24' E 011°06'1615.9
2014-Aug-16 15:33N 37°28' E 010°46'1615.7
2014-Aug-16 14:33N 37°31' E 010°27'1616.2
2014-Aug-16 13:33N 37°34' E 010°07'1616.4
2014-Aug-16 12:33N 37°31' E 009°46'1615.9
2014-Aug-16 11:33N 37°27' E 009°27'1615.7
2014-Aug-16 10:33N 37°23' E 009°07'69815.7
2014-Aug-14 14:08N 35°58' W 005°16'11115.7
2014-Aug-14 07:06N 35°55' W 007°33'3915.2
2014-Aug-14 04:32N 35°54' W 008°21'2914.9
2014-Aug-14 02:33N 35°53' W 008°57'1414.3
2014-Aug-14 01:32N 35°53' W 009°15'1414.0
2014-Aug-14 00:33N 35°54' W 009°32'1313.5
2014-Aug-13 23:33N 35°54' W 009°49'1413.9
2014-Aug-13 22:32N 35°54' W 010°06'3213.9
2014-Aug-13 20:12N 35°54' W 010°46'61715.4
2014-Aug-12 04:04N 37°43' W 023°25'1515.4
2014-Aug-12 03:05N 37°45' W 023°44'814.9
2014-Aug-12 02:33N 37°46' W 023°54'1514.9
2014-Aug-12 01:34N 37°48' W 024°12'1514.9
2014-Aug-12 00:33N 37°51' W 024°31'1515.2
2014-Aug-11 23:34N 37°53' W 024°50'1515.4
2014-Aug-11 22:34N 37°55' W 025°10'1515.5
2014-Aug-11 21:34N 37°56' W 025°29'1615.5
2014-Aug-11 20:34N 37°58' W 025°49'1515.3
2014-Aug-11 19:34N 37°59' W 026°08'1615.6
2014-Aug-11 18:33N 38°01' W 026°28'1616.0
2014-Aug-11 17:33N 38°02' W 026°48'1616.0
2014-Aug-11 16:33N 38°03' W 027°08'1616.2
2014-Aug-11 15:34N 38°05' W 027°29'1616.1
2014-Aug-11 14:34N 38°07' W 027°49'1615.6
2014-Aug-11 13:33N 38°08' W 028°09'1615.6
2014-Aug-11 12:33N 38°09' W 028°28'1615.9
2014-Aug-11 11:34N 38°11' W 028°49'1515.5
2014-Aug-11 10:33N 38°12' W 029°08'1615.6
2014-Aug-11 09:33N 38°13' W 029°28'1615.5
2014-Aug-11 08:33N 38°14' W 029°48'1615.6
2014-Aug-11 07:34N 38°15' W 030°08'1615.9
2014-Aug-11 06:33N 38°16' W 030°28'1515.2
2014-Aug-11 05:33N 38°17' W 030°47'1615.6
2014-Aug-11 04:33N 38°18' W 031°07'1615.7
2014-Aug-11 03:33N 38°19' W 031°27'1615.6
2014-Aug-11 02:33N 38°20' W 031°47'1515.6
2014-Aug-11 01:33N 38°20' W 032°07'1515.3
2014-Aug-11 00:33N 38°21' W 032°26'  
Track history (hours):
 
Tides and Currents Weather Stations Pressure Air Temp Water Temp Dewpoint Dewpoint Depression Visibility Wind Speed Wind Dir Waves Ship Positions

Arthur Maersk

Last reported at 2014-Aug-17 03:33 UTC. Time now 2014-Sep-03 04:39 UTC.
Position N 36°30' E 014°30'.
Warning: this ship's position is 17 days out of date.

Length 352 m; draft 12 m.

Type: Cargo ship. MMSI: 220221000.

Date/timePositionNaut miles runAvg speedWind from/ knotsBaromVisibWave heightAir tempDewpointWater temp
2014-Aug-17 03:33N 36°30' E 014°30'1616.0
2014-Aug-17 02:33N 36°34' E 014°11'1615.8
2014-Aug-17 01:33N 36°39' E 013°52'1615.8
2014-Aug-17 00:33N 36°43' E 013°33'1615.9
2014-Aug-16 23:33N 36°47' E 013°14'1615.6
2014-Aug-16 22:33N 36°53' E 012°56'1515.5
2014-Aug-16 21:33N 36°58' E 012°38'5115.5
2014-Aug-16 18:15N 37°14' E 011°37'1115.8
2014-Aug-16 17:33N 37°18' E 011°24'1615.8
2014-Aug-16 16:33N 37°24' E 011°06'1615.9
2014-Aug-16 15:33N 37°28' E 010°46'1615.7
2014-Aug-16 14:33N 37°31' E 010°27'1616.2
2014-Aug-16 13:33N 37°34' E 010°07'1616.4
2014-Aug-16 12:33N 37°31' E 009°46'1615.9
2014-Aug-16 11:33N 37°27' E 009°27'1615.7
2014-Aug-16 10:33N 37°23' E 009°07'69815.7
2014-Aug-14 14:08N 35°58' W 005°16'11115.7
2014-Aug-14 07:06N 35°55' W 007°33'3915.2
2014-Aug-14 04:32N 35°54' W 008°21'2914.9
2014-Aug-14 02:33N 35°53' W 008°57'1414.3
2014-Aug-14 01:32N 35°53' W 009°15'1414.0
2014-Aug-14 00:33N 35°54' W 009°32'1313.5
2014-Aug-13 23:33N 35°54' W 009°49'1413.9
2014-Aug-13 22:32N 35°54' W 010°06'3213.9
2014-Aug-13 20:12N 35°54' W 010°46'61715.4
2014-Aug-12 04:04N 37°43' W 023°25'1515.4
2014-Aug-12 03:05N 37°45' W 023°44'814.9
2014-Aug-12 02:33N 37°46' W 023°54'1514.9
2014-Aug-12 01:34N 37°48' W 024°12'1514.9
2014-Aug-12 00:33N 37°51' W 024°31'1515.2
2014-Aug-11 23:34N 37°53' W 024°50'1515.4
2014-Aug-11 22:34N 37°55' W 025°10'1515.5
2014-Aug-11 21:34N 37°56' W 025°29'1615.5
2014-Aug-11 20:34N 37°58' W 025°49'1515.3
2014-Aug-11 19:34N 37°59' W 026°08'1615.6
2014-Aug-11 18:33N 38°01' W 026°28'1616.0
2014-Aug-11 17:33N 38°02' W 026°48'1616.0
2014-Aug-11 16:33N 38°03' W 027°08'1616.2
2014-Aug-11 15:34N 38°05' W 027°29'1616.1
2014-Aug-11 14:34N 38°07' W 027°49'1615.6
2014-Aug-11 13:33N 38°08' W 028°09'1615.6
2014-Aug-11 12:33N 38°09' W 028°28'1615.9
2014-Aug-11 11:34N 38°11' W 028°49'1515.5
2014-Aug-11 10:33N 38°12' W 029°08'1615.6
2014-Aug-11 09:33N 38°13' W 029°28'1615.5
2014-Aug-11 08:33N 38°14' W 029°48'1615.6
2014-Aug-11 07:34N 38°15' W 030°08'1615.9
2014-Aug-11 06:33N 38°16' W 030°28'1515.2
2014-Aug-11 05:33N 38°17' W 030°47'1615.6
2014-Aug-11 04:33N 38°18' W 031°07'1615.7
2014-Aug-11 03:33N 38°19' W 031°27'1615.6
2014-Aug-11 02:33N 38°20' W 031°47'1515.6
2014-Aug-11 01:33N 38°20' W 032°07'1515.3
2014-Aug-11 00:33N 38°21' W 032°26'  

Dump ship's entire track history